Time;durP1;ratioP1;P1;durP2;ratioP2;P2;SDS_P1;SDS_P2;PMS_P1;PMS_P2;Temp;Humidity;BMP_temperature;BMP_pressure;BME280_temperature;BME280_humidity;BME280_pressure;Samples;Min_cycle;Max_cycle;Signal;HPM_P1;HPM_P2
2023/04/11 04:02:54;;;;;;;2.00;0.80;;;12.60;80.90;;;;;;4955089;29;20474;-73
2023/04/11 04:05:21;;;;;;;2.00;0.80;;;12.60;81.00;;;;;;4956451;28;20486;-73
2023/04/11 04:07:47;;;;;;;2.10;0.80;;;12.60;81.00;;;;;;4956405;28;20522;-72
2023/04/11 04:10:14;;;;;;;2.10;0.70;;;12.60;80.90;;;;;;4956147;28;20870;-73
2023/04/11 04:12:41;;;;;;;1.80;0.70;;;12.60;81.00;;;;;;4956246;28;20471;-73
2023/04/11 04:15:10;;;;;;;1.60;0.60;;;12.50;81.40;;;;;;4957495;28;20455;-73
2023/04/11 04:17:36;;;;;;;2.10;0.70;;;12.20;81.50;;;;;;4956146;28;20549;-73
2023/04/11 04:20:06;;;;;;;2.53;0.90;;;12.00;82.60;;;;;;4956435;28;20861;-73
2023/04/11 04:22:33;;;;;;;2.37;0.80;;;12.00;82.50;;;;;;4956242;28;20507;-72
2023/04/11 04:25:01;;;;;;;1.77;0.70;;;12.10;82.30;;;;;;4956362;28;20458;-74
2023/04/11 04:27:27;;;;;;;1.80;0.70;;;12.00;82.40;;;;;;4956678;28;20477;-73
2023/04/11 04:29:55;;;;;;;1.90;0.70;;;11.90;82.90;;;;;;4956833;28;20455;-73
2023/04/11 04:32:23;;;;;;;2.40;0.83;;;11.80;83.40;;;;;;4956418;28;20470;-73
2023/04/11 04:34:53;;;;;;;2.50;0.77;;;11.80;83.40;;;;;;4955915;28;20951;-72
2023/04/11 04:37:23;;;;;;;1.87;0.70;;;11.70;83.80;;;;;;4956335;28;20569;-73
2023/04/11 04:39:52;;;;;;;1.70;0.60;;;11.50;84.10;;;;;;4956531;28;20483;-73
2023/04/11 04:42:20;;;;;;;2.23;0.80;;;11.40;83.90;;;;;;4956477;28;20514;-75
2023/04/11 04:44:47;;;;;;;1.83;0.70;;;11.30;83.70;;;;;;4955055;28;20893;-75
2023/04/11 04:47:13;;;;;;;1.87;0.70;;;11.30;83.70;;;;;;4957869;28;20498;-73
2023/04/11 04:49:40;;;;;;;1.90;0.90;;;11.20;83.90;;;;;;4958147;28;20506;-72
2023/04/11 04:52:07;;;;;;;1.70;0.70;;;11.20;83.70;;;;;;4958192;28;20474;-73
2023/04/11 04:54:35;;;;;;;3.83;0.83;;;11.10;83.90;;;;;;4958359;28;20451;-74
2023/04/11 04:57:01;;;;;;;1.73;0.70;;;11.00;83.80;;;;;;4958008;28;20542;-76
2023/04/11 04:59:28;;;;;;;1.90;0.70;;;11.00;83.40;;;;;;4958544;28;20446;-75
2023/04/11 05:01:55;;;;;;;1.80;0.70;;;11.00;83.70;;;;;;4957779;28;20478;-75
2023/04/11 05:04:21;;;;;;;1.80;0.80;;;11.10;83.80;;;;;;4958398;28;20510;-75
2023/04/11 05:06:48;;;;;;;1.87;0.70;;;11.10;84.00;;;;;;4958183;28;20459;-75
2023/04/11 05:09:15;;;;;;;1.80;0.70;;;11.00;83.80;;;;;;4957507;28;20948;-72
2023/04/11 05:11:43;;;;;;;1.80;0.70;;;11.10;83.30;;;;;;4957566;28;20463;-73
2023/04/11 05:14:10;;;;;;;1.70;0.70;;;11.00;83.30;;;;;;4957583;28;20454;-72
2023/04/11 05:16:38;;;;;;;1.90;0.70;;;11.10;83.40;;;;;;4957557;28;20538;-72
2023/04/11 05:19:05;;;;;;;2.10;0.60;;;10.90;83.50;;;;;;4957647;28;20502;-72
2023/04/11 05:21:31;;;;;;;1.70;0.60;;;10.70;83.30;;;;;;4957053;28;20896;-72
2023/04/11 05:23:58;;;;;;;1.80;0.60;;;10.60;83.70;;;;;;4957652;28;20459;-73
2023/04/11 05:26:25;;;;;;;1.67;0.60;;;10.60;84.00;;;;;;4957648;28;20447;-73
2023/04/11 05:28:53;;;;;;;2.30;0.80;;;10.40;84.70;;;;;;4957337;28;20956;-72
2023/04/11 05:31:19;;;;;;;1.80;0.63;;;10.40;85.00;;;;;;4957339;28;20530;-73
2023/04/11 05:33:46;;;;;;;1.80;0.60;;;10.40;85.20;;;;;;4957434;28;20483;-73
2023/04/11 05:36:13;;;;;;;2.00;0.77;;;10.40;84.40;;;;;;4957178;28;20492;-72
2023/04/11 05:38:40;;;;;;;2.50;0.80;;;10.40;84.80;;;;;;4957207;28;20534;-73
2023/04/11 05:41:07;;;;;;;1.90;0.77;;;10.40;84.80;;;;;;4956651;28;21067;-72
2023/04/11 05:43:34;;;;;;;2.90;0.70;;;10.40;83.30;;;;;;4957048;28;20447;-71
2023/04/11 05:46:02;;;;;;;1.80;0.70;;;10.40;83.00;;;;;;4956989;28;20458;-73
2023/04/11 05:48:29;;;;;;;1.70;0.60;;;10.40;82.20;;;;;;4957018;28;20451;-73
2023/04/11 05:50:56;;;;;;;1.90;0.80;;;10.20;80.30;;;;;;4956815;28;20478;-72
2023/04/11 05:53:23;;;;;;;2.37;0.80;;;10.20;80.90;;;;;;4956964;28;20501;-73
2023/04/11 05:55:50;;;;;;;1.93;0.73;;;10.30;80.30;;;;;;4956519;28;20940;-73
2023/04/11 05:58:16;;;;;;;2.00;0.80;;;10.20;80.20;;;;;;4956149;28;20486;-73
2023/04/11 06:00:44;;;;;;;2.00;0.70;;;10.30;80.90;;;;;;4956585;28;20538;-73
2023/04/11 06:03:12;;;;;;;1.70;0.60;;;10.40;80.00;;;;;;4957056;28;20446;-75
2023/04/11 06:05:39;;;;;;;2.53;1.10;;;10.40;79.40;;;;;;4956822;28;20482;-74
2023/04/11 06:08:07;;;;;;;2.43;0.80;;;10.50;79.80;;;;;;4956686;28;20487;-73
2023/04/11 06:10:34;;;;;;;3.80;0.83;;;10.60;79.20;;;;;;4956594;28;20810;-73
2023/04/11 06:13:01;;;;;;;1.90;0.80;;;10.60;79.70;;;;;;4956629;28;20447;-73
2023/04/11 06:15:29;;;;;;;4.80;0.90;;;10.70;79.80;;;;;;4956551;28;20475;-73
2023/04/11 06:17:56;;;;;;;2.30;0.70;;;10.70;79.80;;;;;;4956914;28;20483;-73
2023/04/11 06:20:24;;;;;;;1.90;0.80;;;10.70;79.90;;;;;;4956766;28;20463;-74
2023/04/11 06:22:51;;;;;;;2.00;0.73;;;10.70;80.20;;;;;;4956251;28;20452;-72
2023/04/11 06:25:18;;;;;;;2.30;0.80;;;10.70;80.20;;;;;;4956371;28;20447;-73
2023/04/11 06:27:45;;;;;;;1.87;0.77;;;10.60;80.00;;;;;;4956385;28;20458;-73
2023/04/11 06:30:12;;;;;;;1.83;0.70;;;10.50;80.70;;;;;;4956995;28;20502;-73
2023/04/11 06:32:39;;;;;;;3.17;0.87;;;10.20;80.90;;;;;;4956236;28;20467;-73
2023/04/11 06:35:06;;;;;;;1.90;0.70;;;10.20;81.80;;;;;;4956109;28;20455;-73
2023/04/11 06:37:34;;;;;;;2.30;0.70;;;10.10;81.60;;;;;;4956201;28;20486;-72
2023/04/11 06:40:01;;;;;;;2.03;0.80;;;10.00;82.00;;;;;;4956218;28;20486;-74
2023/04/11 06:42:28;;;;;;;1.90;0.63;;;10.20;82.10;;;;;;4956080;28;20475;-73
2023/04/11 06:44:55;;;;;;;1.90;0.70;;;10.30;81.10;;;;;;4955686;28;20964;-72
2023/04/11 06:47:21;;;;;;;1.87;0.87;;;10.20;80.30;;;;;;4956057;28;20451;-72
2023/04/11 06:49:48;;;;;;;1.73;0.70;;;10.00;80.10;;;;;;4956048;28;20571;-72
2023/04/11 06:52:15;;;;;;;1.90;0.90;;;9.90;81.10;;;;;;4957838;28;20460;-73
2023/04/11 06:54:43;;;;;;;2.30;0.90;;;9.90;81.20;;;;;;4956963;28;20459;-73
2023/04/11 06:57:10;;;;;;;1.77;0.70;;;10.00;81.80;;;;;;4956931;28;20486;-73
2023/04/11 06:59:37;;;;;;;2.77;0.90;;;10.20;81.50;;;;;;4956580;28;20550;-73
2023/04/11 07:02:03;;;;;;;2.40;0.90;;;10.20;80.90;;;;;;4956364;28;20488;-73
2023/04/11 07:04:30;;;;;;;2.10;0.90;;;10.10;80.10;;;;;;4956614;28;20455;-74
2023/04/11 07:06:57;;;;;;;1.90;0.80;;;9.80;81.90;;;;;;4956297;28;20476;-73
2023/04/11 07:09:23;;;;;;;2.00;0.80;;;9.90;81.80;;;;;;4955484;28;20458;-74
2023/04/11 07:11:51;;;;;;;2.17;1.00;;;9.70;81.20;;;;;;4955728;28;20992;-74
2023/04/11 07:14:18;;;;;;;1.80;0.80;;;9.80;82.50;;;;;;4955653;28;20945;-74
2023/04/11 07:16:45;;;;;;;1.90;0.80;;;9.90;82.80;;;;;;4956163;28;20501;-73
2023/04/11 07:19:11;;;;;;;2.23;1.00;;;10.10;82.20;;;;;;4956408;28;20454;-74
2023/04/11 07:21:38;;;;;;;2.00;0.80;;;10.30;81.20;;;;;;4956174;28;20499;-73
2023/04/11 07:24:06;;;;;;;2.10;0.80;;;10.60;79.90;;;;;;4956293;28;20455;-74
2023/04/11 07:26:34;;;;;;;2.73;0.80;;;10.70;80.30;;;;;;4956508;28;20455;-74
2023/04/11 07:29:02;;;;;;;1.87;0.80;;;10.70;79.90;;;;;;4956412;28;20494;-73
2023/04/11 07:31:29;;;;;;;1.90;0.80;;;10.80;79.00;;;;;;4955695;28;20511;-74
2023/04/11 07:33:56;;;;;;;1.83;0.90;;;10.90;79.30;;;;;;4955968;28;20447;-74
2023/04/11 07:36:23;;;;;;;2.53;0.90;;;10.80;78.30;;;;;;4955989;28;20886;-73
2023/04/11 07:38:51;;;;;;;2.70;1.07;;;11.00;78.70;;;;;;4956466;28;20490;-74
2023/04/11 07:41:17;;;;;;;2.10;0.80;;;11.00;77.90;;;;;;4955675;28;20996;-74
2023/04/11 07:43:44;;;;;;;2.87;1.20;;;11.10;78.10;;;;;;4955675;28;20459;-73
2023/04/11 07:46:13;;;;;;;2.10;0.80;;;11.30;76.90;;;;;;4955606;28;20462;-74
2023/04/11 07:48:41;;;;;;;3.60;1.57;;;11.40;76.00;;;;;;4956695;28;20458;-73
2023/04/11 07:51:08;;;;;;;2.90;1.00;;;11.50;77.10;;;;;;4956037;28;20554;-74
2023/04/11 07:53:35;;;;;;;2.87;1.17;;;11.60;76.30;;;;;;4956406;28;20553;-76
2023/04/11 07:56:01;;;;;;;2.73;1.10;;;11.60;75.70;;;;;;4957465;28;20830;-74
2023/04/11 07:58:29;;;;;;;3.00;1.20;;;11.70;75.90;;;;;;4957343;28;20490;-75
2023/04/11 08:00:55;;;;;;;2.73;1.30;;;11.90;75.30;;;;;;4957087;28;20479;-74
2023/04/11 08:03:23;;;;;;;2.30;1.07;;;12.30;74.80;;;;;;4957396;28;20443;-74
2023/04/11 08:05:51;;;;;;;2.63;1.40;;;12.60;73.10;;;;;;4956880;28;20539;-75
2023/04/11 08:08:17;;;;;;;2.40;1.03;;;12.80;71.90;;;;;;4957172;28;20498;-73
2023/04/11 08:10:44;;;;;;;2.57;1.00;;;13.00;71.20;;;;;;4956684;28;20841;-75
2023/04/11 08:13:11;;;;;;;2.30;1.10;;;13.30;69.40;;;;;;4956182;28;20451;-73
2023/04/11 08:15:38;;;;;;;2.60;1.10;;;13.10;68.70;;;;;;4956156;28;20858;-75
2023/04/11 08:18:04;;;;;;;2.23;1.13;;;13.00;71.20;;;;;;4955950;28;20506;-74
2023/04/11 08:20:32;;;;;;;2.70;1.00;;;12.80;68.90;;;;;;4957853;28;20510;-75
2023/04/11 08:23:04;;;;;;;3.10;1.40;;;12.70;68.20;;;;;;4960343;28;20474;-76
2023/04/11 08:25:32;;;;;;;3.70;1.50;;;12.50;69.00;;;;;;4960441;28;20446;-74
2023/04/11 08:27:58;;;;;;;4.37;1.20;;;12.30;69.50;;;;;;4960838;28;20874;-74
2023/04/11 08:30:26;;;;;;;2.50;1.07;;;12.10;69.80;;;;;;4961220;28;20473;-74
2023/04/11 08:32:52;;;;;;;2.07;1.00;;;12.00;70.90;;;;;;4960037;28;20470;-74
2023/04/11 08:35:19;;;;;;;3.53;1.00;;;11.70;69.60;;;;;;4960230;28;20467;-74
2023/04/11 08:37:48;;;;;;;2.63;1.03;;;11.80;71.60;;;;;;4962169;28;20541;-74
2023/04/11 08:40:15;;;;;;;3.07;1.27;;;11.80;71.00;;;;;;4960828;28;20546;-74
2023/04/11 08:42:42;;;;;;;2.50;1.17;;;11.80;69.70;;;;;;4960035;28;20471;-75
2023/04/11 08:45:10;;;;;;;2.23;1.17;;;11.80;70.60;;;;;;4960532;28;20458;-73
2023/04/11 08:47:37;;;;;;;2.50;0.90;;;12.00;70.90;;;;;;4960632;28;20498;-74
2023/04/11 08:50:04;;;;;;;2.77;1.27;;;12.20;68.80;;;;;;4959910;28;20514;-74
2023/04/11 08:52:32;;;;;;;2.63;1.00;;;12.60;70.30;;;;;;4960283;28;20463;-74
2023/04/11 08:55:00;;;;;;;2.73;1.23;;;12.90;67.90;;;;;;4960091;28;20458;-74
2023/04/11 08:57:30;;;;;;;3.27;1.03;;;12.90;67.50;;;;;;4959747;28;20478;-74
2023/04/11 08:59:59;;;;;;;2.83;1.10;;;12.80;65.20;;;;;;4959498;28;20463;-74
2023/04/11 09:02:26;;;;;;;2.07;1.00;;;12.90;65.60;;;;;;4958885;28;20562;-75
2023/04/11 09:04:56;;;;;;;2.80;0.93;;;12.90;65.40;;;;;;4959868;28;20538;-74
2023/04/11 09:07:23;;;;;;;4.13;1.20;;;12.80;62.90;;;;;;4959867;28;20459;-75
2023/04/11 09:09:49;;;;;;;3.83;1.20;;;13.00;64.50;;;;;;4960067;28;20466;-75
2023/04/11 09:12:21;;;;;;;2.20;0.93;;;13.10;64.30;;;;;;4959415;28;20511;-74
2023/04/11 09:14:48;;;;;;;2.20;1.00;;;13.40;64.60;;;;;;4959979;28;20439;-74
2023/04/11 09:17:15;;;;;;;5.23;1.23;;;13.60;64.00;;;;;;4960620;28;20458;-74
2023/04/11 09:19:42;;;;;;;7.60;1.30;;;13.20;63.40;;;;;;4959972;28;20882;-73
2023/04/11 09:22:09;;;;;;;1.97;0.90;;;13.40;64.40;;;;;;4960021;28;20538;-73
2023/04/11 09:24:37;;;;;;;2.40;1.07;;;13.60;63.70;;;;;;4959799;28;20456;-74
2023/04/11 09:27:09;;;;;;;2.27;1.10;;;13.70;62.20;;;;;;4960904;28;20455;-74
2023/04/11 09:29:39;;;;;;;2.30;1.03;;;13.80;61.60;;;;;;4960522;28;20462;-74
2023/04/11 09:32:06;;;;;;;2.60;0.90;;;13.80;60.80;;;;;;4960513;28;20498;-75
2023/04/11 09:34:36;;;;;;;3.20;1.20;;;13.80;61.00;;;;;;4961117;28;20451;-76
2023/04/11 09:37:04;;;;;;;2.43;1.20;;;13.80;60.80;;;;;;4961014;28;20460;-75
2023/04/11 09:39:31;;;;;;;3.07;1.00;;;13.70;59.80;;;;;;4961223;28;20522;-76
2023/04/11 09:41:59;;;;;;;2.20;1.00;;;13.60;60.40;;;;;;4960886;28;20479;-74
2023/04/11 09:44:37;;;;;;;2.43;0.90;;;13.60;61.20;;;;;;4960596;28;20956;-74
2023/04/11 09:47:04;;;;;;;2.83;1.03;;;13.70;60.30;;;;;;4960559;28;20503;-75
2023/04/11 09:49:33;;;;;;;2.40;1.00;;;13.70;59.50;;;;;;4959717;28;20962;-74
2023/04/11 09:52:01;;;;;;;2.80;1.10;;;13.60;59.10;;;;;;4958513;28;20534;-74
2023/04/11 09:54:28;;;;;;;2.27;1.00;;;13.60;59.20;;;;;;4959101;28;20455;-74
2023/04/11 09:56:56;;;;;;;4.53;1.60;;;13.80;61.60;;;;;;4959404;28;20451;-72
2023/04/11 09:59:26;;;;;;;2.87;1.30;;;13.80;60.40;;;;;;4958704;28;20542;-74
2023/04/11 10:01:54;;;;;;;2.53;1.10;;;13.70;59.60;;;;;;4958335;28;20494;-74
2023/04/11 10:04:21;;;;;;;2.50;1.10;;;13.70;59.50;;;;;;4958216;28;20459;-74
2023/04/11 10:07:00;;;;;;;3.47;1.23;;;13.70;59.80;;;;;;4958719;28;20491;-74
2023/04/11 10:09:28;;;;;;;2.00;0.87;;;13.80;60.30;;;;;;4958015;28;20446;-75
2023/04/11 10:11:55;;;;;;;2.30;1.07;;;13.90;61.50;;;;;;4957420;28;20467;-74
2023/04/11 10:14:44;;;;;;;2.27;0.90;;;14.10;62.20;;;;;;4958935;28;20459;-74
2023/04/11 10:17:16;;;;;;;2.30;1.00;;;14.10;60.90;;;;;;4957191;28;20443;-74
2023/04/11 10:19:44;;;;;;;2.63;1.10;;;14.30;62.00;;;;;;4956691;28;20475;-74
2023/04/11 10:22:11;;;;;;;1.97;0.87;;;14.40;60.60;;;;;;4956825;28;20473;-74
2023/04/11 10:24:38;;;;;;;2.70;1.40;;;14.40;59.90;;;;;;4956660;28;20451;-74
2023/04/11 10:27:05;;;;;;;3.57;1.10;;;14.50;59.70;;;;;;4956591;28;20817;-74
2023/04/11 10:29:46;;;;;;;2.57;0.90;;;14.40;59.80;;;;;;4956552;28;20818;-73
2023/04/11 10:32:19;;;;;;;2.30;1.10;;;14.30;59.30;;;;;;4956534;28;20463;-75
2023/04/11 10:35:30;;;;;;;1.80;1.00;;;14.10;60.20;;;;;;4956301;28;20530;-74
2023/04/11 10:37:57;;;;;;;2.97;1.00;;;13.90;60.90;;;;;;4956984;28;20518;-75
2023/04/11 10:40:24;;;;;;;2.43;0.90;;;13.90;60.70;;;;;;4958000;28;20451;-75
2023/04/11 10:42:51;;;;;;;2.60;0.90;;;13.90;60.40;;;;;;4957724;28;20471;-74
2023/04/11 10:45:23;;;;;;;2.03;1.03;;;14.00;61.00;;;;;;4958089;28;20476;-74
2023/04/11 10:48:10;;;;;;;2.20;0.97;;;14.10;59.10;;;;;;4957673;28;20863;-75
2023/04/11 10:50:43;;;;;;;2.33;1.00;;;14.10;60.10;;;;;;4960219;28;20510;-74
2023/04/11 10:53:35;;;;;;;2.57;0.90;;;14.30;59.00;;;;;;4958578;28;20455;-75
2023/04/11 10:56:02;;;;;;;2.50;1.10;;;14.40;59.40;;;;;;4959802;28;20792;-74
2023/04/11 10:58:35;;;;;;;2.60;1.10;;;14.30;58.30;;;;;;4959220;28;20482;-74
2023/04/11 11:01:15;;;;;;;2.73;1.20;;;14.10;58.10;;;;;;4957933;28;20489;-75
2023/04/11 11:03:57;;;;;;;2.10;1.10;;;14.00;60.60;;;;;;4957496;28;20803;-73
2023/04/11 11:06:25;;;;;;;2.53;1.00;;;13.70;67.20;;;;;;4957548;28;20432;-75
2023/04/11 11:08:53;;;;;;;3.33;1.40;;;13.30;68.30;;;;;;4957409;28;20459;-76
2023/04/11 11:11:20;;;;;;;1.87;0.93;;;13.10;68.80;;;;;;4957165;28;20806;-74
2023/04/11 11:13:49;;;;;;;2.53;0.90;;;13.20;69.60;;;;;;4957659;28;20451;-74
2023/04/11 11:16:17;;;;;;;2.77;1.10;;;13.40;70.10;;;;;;4957281;28;20514;-74
2023/04/11 11:18:46;;;;;;;2.63;1.03;;;13.60;69.20;;;;;;4956521;28;20561;-75
2023/04/11 11:21:18;;;;;;;3.40;1.10;;;13.80;66.10;;;;;;4956946;28;20558;-74
2023/04/11 11:23:58;;;;;;;1.90;0.90;;;14.00;65.60;;;;;;4956311;28;20439;-74
2023/04/11 11:26:38;;;;;;;4.23;1.00;;;14.30;61.60;;;;;;4956724;28;20467;-73
2023/04/11 11:29:05;;;;;;;1.87;0.83;;;14.30;62.60;;;;;;4956605;28;20446;-73
2023/04/11 11:31:40;;;;;;;2.57;1.30;;;14.20;59.00;;;;;;4956623;28;20487;-73
2023/04/11 11:34:07;;;;;;;2.57;1.37;;;14.40;58.20;;;;;;4957744;28;20787;-75
2023/04/11 11:36:38;;;;;;;2.63;0.90;;;14.10;58.00;;;;;;4956807;28;20478;-73
2023/04/11 11:39:06;;;;;;;3.03;1.27;;;14.10;56.80;;;;;;4956983;28;21007;-76
2023/04/11 11:41:33;;;;;;;3.20;1.30;;;14.20;57.60;;;;;;4957673;28;20479;-73
2023/04/11 11:44:00;;;;;;;2.00;0.90;;;14.30;57.70;;;;;;4958840;28;20972;-75
2023/04/11 11:46:29;;;;;;;2.57;0.83;;;14.30;56.10;;;;;;4958971;28;20478;-75
2023/04/11 11:49:00;;;;;;;2.20;1.10;;;14.40;58.10;;;;;;4957530;28;20487;-77
2023/04/11 11:51:27;;;;;;;3.20;1.03;;;14.40;55.90;;;;;;4957258;28;20478;-76
2023/04/11 11:54:08;;;;;;;2.13;1.00;;;14.50;55.90;;;;;;4958666;28;20458;-75
2023/04/11 11:56:35;;;;;;;5.60;1.40;;;14.50;54.00;;;;;;4961510;28;20443;-76
2023/04/11 11:59:03;;;;;;;2.23;1.00;;;14.50;54.20;;;;;;4962106;28;20493;-77
2023/04/11 12:01:30;;;;;;;2.27;1.00;;;14.40;53.70;;;;;;4961114;28;20487;-75
2023/04/11 12:03:57;;;;;;;1.90;0.93;;;14.50;54.60;;;;;;4960821;28;20443;-75
2023/04/11 12:06:29;;;;;;;2.67;1.13;;;14.70;54.00;;;;;;4961442;28;20455;-75
2023/04/11 12:09:01;;;;;;;2.80;1.43;;;14.80;54.00;;;;;;4962694;28;20467;-75
2023/04/11 12:11:36;;;;;;;3.50;1.10;;;14.90;53.40;;;;;;4961281;28;20481;-76
2023/04/11 12:14:03;;;;;;;2.40;1.10;;;15.00;54.40;;;;;;4960994;28;20466;-75
2023/04/11 12:16:29;;;;;;;2.20;1.10;;;15.40;53.80;;;;;;4960455;28;20458;-76
2023/04/11 12:18:58;;;;;;;2.67;1.00;;;15.30;52.50;;;;;;4960591;28;20603;-75
2023/04/11 12:21:25;;;;;;;2.40;1.10;;;15.30;53.00;;;;;;4960877;28;20459;-75
2023/04/11 12:23:52;;;;;;;2.83;1.03;;;14.90;53.80;;;;;;4961569;28;20486;-76
2023/04/11 12:26:20;;;;;;;2.93;1.13;;;14.60;53.20;;;;;;4960492;28;20447;-76
2023/04/11 12:28:49;;;;;;;2.37;1.10;;;14.50;52.40;;;;;;4959935;28;20933;-76
2023/04/11 12:31:16;;;;;;;2.30;1.00;;;14.50;52.80;;;;;;4959381;28;21051;-76
2023/04/11 12:33:43;;;;;;;2.10;1.10;;;14.50;53.50;;;;;;4959427;28;20459;-75
2023/04/11 12:36:10;;;;;;;2.33;0.93;;;14.60;53.20;;;;;;4959452;28;20466;-76
2023/04/11 12:38:37;;;;;;;3.10;1.07;;;14.70;53.30;;;;;;4959659;28;20490;-75
2023/04/11 12:41:04;;;;;;;2.40;1.00;;;14.80;53.30;;;;;;4958674;28;20538;-76
2023/04/11 12:43:31;;;;;;;2.27;1.07;;;14.90;51.80;;;;;;4958938;28;20476;-75
2023/04/11 12:45:59;;;;;;;3.20;1.00;;;14.90;53.10;;;;;;4958884;28;20875;-76
2023/04/11 12:48:25;;;;;;;2.50;1.20;;;14.90;50.40;;;;;;4959275;29;20509;-77
2023/04/11 12:50:52;;;;;;;2.90;1.10;;;15.00;51.00;;;;;;4959084;28;20942;-75
2023/04/11 12:53:19;;;;;;;3.23;1.07;;;15.10;49.50;;;;;;4958996;28;20478;-76
2023/04/11 12:55:45;;;;;;;2.07;1.00;;;15.10;49.10;;;;;;4958871;28;20807;-77
2023/04/11 12:58:12;;;;;;;2.37;1.17;;;15.30;49.20;;;;;;4959115;28;20456;-76
2023/04/11 13:00:39;;;;;;;1.90;0.87;;;15.40;48.40;;;;;;4958379;28;20900;-77
2023/04/11 13:03:07;;;;;;;2.87;1.33;;;15.40;49.10;;;;;;4959210;28;20909;-77
2023/04/11 13:05:34;;;;;;;2.20;0.90;;;15.60;48.50;;;;;;4959225;28;20454;-76
2023/04/11 13:08:01;;;;;;;2.57;0.90;;;15.60;49.70;;;;;;4958079;28;20462;-77
2023/04/11 13:10:28;;;;;;;2.00;0.90;;;15.70;48.30;;;;;;4958400;28;20505;-74
2023/04/11 13:12:55;;;;;;;3.70;1.23;;;15.80;48.50;;;;;;4958844;28;20455;-77
2023/04/11 13:15:22;;;;;;;2.50;0.90;;;15.80;48.40;;;;;;4958516;28;20550;-76
2023/04/11 13:17:49;;;;;;;2.40;1.10;;;15.50;47.90;;;;;;4958389;28;20451;-76
2023/04/11 13:20:17;;;;;;;2.40;1.30;;;15.50;48.60;;;;;;4958314;28;20487;-75
2023/04/11 13:22:44;;;;;;;2.20;0.97;;;15.20;47.80;;;;;;4958799;28;20503;-75
2023/04/11 13:25:11;;;;;;;2.60;1.17;;;15.10;48.80;;;;;;4959271;28;20455;-74
2023/04/11 13:27:38;;;;;;;2.17;1.20;;;15.10;48.60;;;;;;4958537;28;20486;-76
2023/04/11 13:30:07;;;;;;;2.33;1.03;;;15.20;49.30;;;;;;4958077;28;20455;-76
2023/04/11 13:32:33;;;;;;;2.50;1.40;;;15.40;48.70;;;;;;4957891;28;20482;-77
2023/04/11 13:35:00;;;;;;;2.10;0.90;;;15.30;47.90;;;;;;4958574;28;20440;-77
2023/04/11 13:37:28;;;;;;;2.20;0.90;;;15.40;48.20;;;;;;4958549;28;20447;-77
2023/04/11 13:39:55;;;;;;;1.90;0.80;;;15.30;47.90;;;;;;4957978;28;20487;-77
2023/04/11 13:42:21;;;;;;;2.20;1.00;;;15.50;48.50;;;;;;4958181;28;20475;-77
2023/04/11 13:44:48;;;;;;;2.63;0.90;;;15.80;48.40;;;;;;4957925;28;20458;-77
2023/04/11 13:47:15;;;;;;;1.90;1.03;;;15.90;47.40;;;;;;4958608;28;20463;-76
2023/04/11 13:49:41;;;;;;;2.23;1.13;;;16.00;46.50;;;;;;4959007;28;20459;-76
2023/04/11 13:52:08;;;;;;;1.93;0.90;;;16.10;45.70;;;;;;4958672;28;20530;-77
2023/04/11 13:54:37;;;;;;;2.07;0.93;;;16.10;45.90;;;;;;4958755;28;20450;-78
2023/04/11 13:57:06;;;;;;;2.50;1.10;;;16.20;45.70;;;;;;4958307;28;20558;-77
2023/04/11 13:59:33;;;;;;;2.00;0.90;;;16.20;46.20;;;;;;4957833;28;20488;-76
2023/04/11 14:02:00;;;;;;;2.63;1.00;;;16.30;45.70;;;;;;4958023;28;20515;-77
2023/04/11 14:04:27;;;;;;;2.30;1.07;;;16.00;46.70;;;;;;4958529;28;20459;-77
2023/04/11 14:06:54;;;;;;;2.13;1.00;;;16.20;47.00;;;;;;4958425;28;20487;-77
2023/04/11 14:09:20;;;;;;;2.00;0.93;;;16.10;46.70;;;;;;4958390;28;20953;-77
2023/04/11 14:11:49;;;;;;;6.00;1.03;;;16.20;46.30;;;;;;4958780;28;20494;-76
2023/04/11 14:14:15;;;;;;;2.10;0.97;;;16.30;46.50;;;;;;4960007;28;20452;-76
2023/04/11 14:16:42;;;;;;;2.23;1.03;;;16.20;46.00;;;;;;4958834;28;20530;-77
2023/04/11 14:19:09;;;;;;;2.50;1.33;;;16.30;44.70;;;;;;4958983;28;20495;-76
2023/04/11 14:21:36;;;;;;;3.40;1.10;;;16.40;44.90;;;;;;4958573;28;20566;-77
2023/04/11 14:24:03;;;;;;;3.40;1.10;;;16.50;45.70;;;;;;4959335;28;20905;-77
2023/04/11 14:26:30;;;;;;;2.67;1.10;;;16.50;45.40;;;;;;4959932;28;20487;-77
2023/04/11 14:28:58;;;;;;;2.67;1.00;;;16.60;45.50;;;;;;4958925;28;20462;-77
2023/04/11 14:31:24;;;;;;;3.83;1.43;;;16.80;45.50;;;;;;4958731;28;20522;-77
2023/04/11 14:33:52;;;;;;;2.40;1.00;;;17.00;45.10;;;;;;4958032;28;20452;-76
2023/04/11 14:36:19;;;;;;;1.97;0.83;;;17.10;43.80;;;;;;4956890;28;20965;-76
2023/04/11 14:38:45;;;;;;;2.03;1.07;;;17.20;44.40;;;;;;4958683;28;20455;-76
2023/04/11 14:41:12;;;;;;;3.90;1.37;;;17.20;44.40;;;;;;4957788;28;20550;-76
2023/04/11 14:43:39;;;;;;;3.43;1.00;;;17.10;44.80;;;;;;4957601;28;20881;-75
2023/04/11 14:46:07;;;;;;;2.67;1.20;;;16.90;44.30;;;;;;4959519;28;20452;-76
2023/04/11 14:48:33;;;;;;;3.60;1.40;;;16.60;45.60;;;;;;4957217;28;20466;-74
2023/04/11 14:51:02;;;;;;;2.60;1.07;;;17.10;44.70;;;;;;4957379;28;20474;-75
2023/04/11 14:53:29;;;;;;;2.20;1.00;;;17.60;44.50;;;;;;4957711;28;20455;-76
2023/04/11 14:55:56;;;;;;;2.70;1.23;;;17.30;44.60;;;;;;4957567;28;20454;-76
2023/04/11 14:58:22;;;;;;;2.57;1.10;;;17.10;45.50;;;;;;4958345;28;20459;-77
2023/04/11 15:00:49;;;;;;;3.17;1.67;;;16.70;46.10;;;;;;4957774;28;20546;-77
2023/04/11 15:03:17;;;;;;;2.20;1.00;;;16.60;47.30;;;;;;4958120;28;20499;-76
2023/04/11 15:05:44;;;;;;;1.83;0.90;;;17.00;46.10;;;;;;4958382;28;20575;-76
2023/04/11 15:08:10;;;;;;;2.00;1.00;;;17.30;45.90;;;;;;4959225;28;20447;-77
2023/04/11 15:10:37;;;;;;;2.73;1.30;;;17.50;45.80;;;;;;4959340;28;20448;-76
2023/04/11 15:13:04;;;;;;;2.43;1.30;;;17.30;46.40;;;;;;4959038;28;20459;-76
2023/04/11 15:15:30;;;;;;;2.03;1.10;;;17.00;46.40;;;;;;4958889;28;20482;-76
2023/04/11 15:18:22;;;;;;;3.60;1.20;;;16.80;46.20;;;;;;4959853;28;20451;-77
2023/04/11 15:20:48;;;;;;;3.00;1.17;;;16.40;46.80;;;;;;4958906;28;20487;-77
2023/04/11 15:23:15;;;;;;;2.63;0.80;;;16.50;45.70;;;;;;4957722;28;20459;-77
2023/04/11 15:25:42;;;;;;;2.97;1.13;;;16.40;45.90;;;;;;4955363;28;20455;-76
2023/04/11 15:28:09;;;;;;;2.23;1.10;;;16.20;45.80;;;;;;4955069;28;20940;-76
2023/04/11 15:30:44;;;;;;;2.00;0.90;;;16.40;46.10;;;;;;4954452;28;20953;-75
2023/04/11 15:33:11;;;;;;;2.27;1.07;;;16.70;45.40;;;;;;4955542;28;20439;-76
2023/04/11 15:35:40;;;;;;;2.43;1.07;;;17.20;44.70;;;;;;4955388;28;20877;-76
2023/04/11 15:38:07;;;;;;;2.37;1.20;;;16.90;44.40;;;;;;4955240;28;20458;-76
2023/04/11 15:40:33;;;;;;;2.20;1.10;;;16.70;46.30;;;;;;4955241;28;20482;-77
2023/04/11 15:43:00;;;;;;;2.10;1.00;;;16.50;45.40;;;;;;4955346;28;20502;-76
2023/04/11 15:45:27;;;;;;;1.90;0.90;;;16.30;45.10;;;;;;4955361;28;20605;-75
2023/04/11 15:47:54;;;;;;;2.20;1.20;;;16.10;45.80;;;;;;4955366;28;20537;-76
2023/04/11 15:50:21;;;;;;;1.90;0.80;;;15.90;46.40;;;;;;4954907;28;20937;-76
2023/04/11 15:52:48;;;;;;;2.90;1.30;;;15.60;45.80;;;;;;4955470;28;20522;-76
2023/04/11 15:55:15;;;;;;;2.03;1.00;;;15.40;47.00;;;;;;4955009;28;21000;-74
2023/04/11 15:57:42;;;;;;;3.33;1.17;;;15.50;46.70;;;;;;4955431;28;20459;-76
2023/04/11 16:00:09;;;;;;;2.37;1.07;;;15.30;47.30;;;;;;4955006;28;20597;-76
2023/04/11 16:02:36;;;;;;;2.10;1.10;;;15.20;47.50;;;;;;4954704;28;20511;-76
2023/04/11 16:05:03;;;;;;;3.83;1.40;;;15.30;47.50;;;;;;4955125;28;20451;-76
2023/04/11 16:07:30;;;;;;;2.20;1.00;;;15.40;48.00;;;;;;4954723;28;20979;-76
2023/04/11 16:09:58;;;;;;;2.50;1.30;;;15.40;47.80;;;;;;4955092;28;20455;-77
2023/04/11 16:12:25;;;;;;;1.93;1.00;;;15.40;48.00;;;;;;4955006;28;20483;-77
2023/04/11 16:14:51;;;;;;;2.53;1.10;;;15.30;46.90;;;;;;4955609;28;20479;-77
2023/04/11 16:17:19;;;;;;;2.00;1.10;;;15.40;47.50;;;;;;4955056;28;20451;-76
2023/04/11 16:19:46;;;;;;;2.20;0.90;;;15.40;47.50;;;;;;4954824;28;20518;-77
2023/04/11 16:22:12;;;;;;;5.13;1.03;;;15.30;47.50;;;;;;4954867;28;20533;-76
2023/04/11 16:24:39;;;;;;;2.40;1.10;;;15.20;47.50;;;;;;4954628;28;20949;-76
2023/04/11 16:27:07;;;;;;;2.67;1.07;;;15.20;48.70;;;;;;4954987;28;20455;-77
2023/04/11 16:29:34;;;;;;;2.40;1.10;;;15.10;48.40;;;;;;4955011;28;20451;-75
2023/04/11 16:32:01;;;;;;;2.30;1.00;;;15.10;48.80;;;;;;4954704;28;20883;-77
2023/04/11 16:34:28;;;;;;;2.57;0.90;;;15.00;48.70;;;;;;4954501;28;20944;-77
2023/04/11 16:36:54;;;;;;;2.77;1.20;;;14.90;48.80;;;;;;4954758;28;20447;-77
2023/04/11 16:39:21;;;;;;;2.33;1.00;;;14.70;49.30;;;;;;4956113;28;20586;-78
2023/04/11 16:41:48;;;;;;;4.07;1.33;;;14.70;50.10;;;;;;4957837;28;20529;-76
2023/04/11 16:44:16;;;;;;;3.70;1.20;;;14.90;49.80;;;;;;4959233;28;20849;-77
2023/04/11 16:46:44;;;;;;;2.43;1.10;;;15.00;49.40;;;;;;4959323;28;20542;-76
2023/04/11 16:49:11;;;;;;;1.90;0.90;;;15.10;49.80;;;;;;4959924;28;20455;-76
2023/04/11 16:51:37;;;;;;;2.63;1.00;;;15.20;48.90;;;;;;4961506;28;20471;-75
2023/04/11 16:54:08;;;;;;;2.50;1.27;;;15.20;49.50;;;;;;4960685;28;20511;-76